Nearby METAR Reports

 

KBFI - Seattle/Boeing, Washington, USA
Distance from station: S 10mi, 16km
Updated: Sat, 07-Dec-2019 10:36am PST
Overcast
Overcast
 Wind from calm
Wind: Calm
Temperature: 48°F , 9°C
Dew Point: 45°F , 7°C
Humidity: 87%
Barometer: 29.75 inHg , 1007.5 hPa
Clouds: Overcast
Visibility: 10 miles , 16 km
Cloud details: Overcast 3100 ft
2019/12/07 18:36 KBFI 071836Z 00000KT 10SM OVC031 09/07 A2975 RMK AO2 T00890072
KRNT - Renton, Washington, USA
Distance from station: SSE 14mi, 23km
Updated: Sat, 07-Dec-2019 9:53am PST
Mist, Overcast
Mist, Overcast
 Wind from S
Wind: S 3 mph , 6 km/h
Temperature: 46°F , 8°C
Dew Point: 45°F , 7°C
Humidity: 93%
Barometer: 29.75 inHg , 1007.5 hPa
Summary: Mist
Clouds: Overcast
Visibility: 3 miles , 5 km
Cloud details: Partly cloudy 2600 ft
Overcast 3200 ft
2019/12/07 17:53 KRNT 071753Z 19003KT 3SM BR SCT026 OVC032 08/07 A2975 RMK AO2 RAB1659E24 SLP078 P0000 60000 T00780067 10078 20072 53004
 
KPAE - Everett, Washington, USA
Distance from station: N 15mi, 25km
Updated: Sat, 07-Dec-2019 9:53am PST
Mist, Overcast
Mist, Overcast
 Wind from ESE
Wind: ESE 6 mph , 9 km/h
Temperature: 46°F , 8°C
Wind Chill: 43°F , 6°C
Dew Point: 43°F , 6°C
Humidity: 87%
Barometer: 29.75 inHg , 1007.5 hPa
Summary: Mist
Clouds: Overcast
Visibility: 2 miles , 3 km
Cloud details: Partly cloudy 400 ft
Mostly cloudy 1800 ft
Overcast 2400 ft
2019/12/07 17:53 KPAE 071753Z 12005KT 2SM BR SCT004 BKN018 OVC024 08/06 A2975 RMK AO2 RAE22 SLP076 P0001 60022 T00780061 10078 20072 53006
KSEA - Seattle/Metro, Washington, USA
Distance from station: S 17mi, 27km
Updated: Sat, 07-Dec-2019 9:53am PST
Overcast
Overcast
 Wind from varies
Wind: varies 6 mph , 9 km/h
Temperature: 48°F , 9°C
Wind Chill: 45°F , 7°C
Dew Point: 45°F , 7°C
Humidity: 87%
Barometer: 29.74 inHg , 1007.1 hPa
Clouds: Overcast
Visibility: 9 miles , 14 km
Cloud details: Few Clouds 1600 ft
Overcast 2400 ft
2019/12/07 17:53 KSEA 071753Z VRB05KT 9SM FEW016 OVC024 09/07 A2974 RMK AO2 RAE53 SLP077 P0002 60009 T00890067 10089 20083 52004
 
KPWT - Bremerton Ntnl, Washington, USA
Distance from station: SW 24mi, 39km
Updated: Sat, 07-Dec-2019 10:43am PST
Light rain, Mist, Overcast
Light rain, Mist, Overcast
 Wind from S
Wind: S 3 mph , 6 km/h
Temperature: 46°F , 8°C
Dew Point: 46°F , 8°C
Humidity: 100%
Barometer: 29.74 inHg , 1007.1 hPa
Summary: Light rain, Mist
Clouds: Overcast
Visibility: 5 miles , 8 km
Cloud details: Overcast 600 ft
2019/12/07 18:43 KPWT 071843Z AUTO 18003KT 5SM -RA BR OVC006 08/08 A2974 RMK AO2 CIG 003V010 PNO $
KTIW - Tacoma, Washington, USA
Distance from station: SSW 32mi, 52km
Updated: Sat, 07-Dec-2019 9:53am PST
Mist, Overcast
Mist, Overcast
 Wind from calm
Wind: Calm
Temperature: 46°F , 8°C
Dew Point: 45°F , 7°C
Humidity: 93%
Barometer: 29.74 inHg , 1007.1 hPa
Summary: Mist
Clouds: Overcast
Visibility: 3 miles , 5 km
Cloud details: Mostly cloudy 1200 ft
Mostly cloudy 3000 ft
Overcast 3700 ft
2019/12/07 17:53 KTIW 071753Z 00000KT 3SM BR BKN012 BKN030 OVC037 08/07 A2974 RMK AO2 SLP072 60016 T00830072 10083 20078 53007
 
KAWO - Arlington Muni, Washington, USA
Distance from station: N 33mi, 54km
Updated: Sat, 07-Dec-2019 9:56am PST
Light rain, Overcast
Light rain, Overcast
 Wind from calm
Wind: Calm
Temperature: 46°F , 8°C
Dew Point: 46°F , 8°C
Humidity: 100%
Barometer: 29.76 inHg , 1007.8 hPa
Summary: Light rain
Clouds: Overcast
Visibility: 10 miles , 16 km
Cloud details: Overcast 2600 ft
2019/12/07 17:56 KAWO 071756Z AUTO 00000KT 10SM -RA OVC026 08/08 A2976 RMK AO2 SLP083 6//// T00780078 10083 20078 53008 PNO $
KTCM - Tacoma/Mc Chord, Washington, USA
Distance from station: S 41mi, 65km
Updated: Sat, 07-Dec-2019 10:44am PST
Light rain, Overcast
Light rain, Overcast
 Wind from calm
Wind: Calm
Temperature: 48°F , 9°C
Dew Point: 48°F , 9°C
Humidity: 100%
Barometer: 29.74 inHg , 1007.1 hPa
Summary: Light rain
Clouds: Overcast
Visibility: 10 miles , 16 km
Cloud details: Mostly cloudy 2600 ft
Overcast 3400 ft
2019/12/07 18:44 KTCM 071844Z AUTO 00000KT 10SM -RA BKN026 OVC034 09/09 A2974 RMK AO2 RAB34 CIG 026V033 SLP076 RVRNO $
 
KPLU - Puyallup/Thun, Washington, USA
Distance from station: S 41mi, 66km
Updated: Sat, 07-Dec-2019 10:35am PST
Overcast
Overcast
 Wind from calm
Wind: Calm
Temperature: 50°F , 10°C
Dew Point: 50°F , 10°C
Humidity: 100%
Barometer: 29.74 inHg , 1007.1 hPa
Clouds: Overcast
Visibility: 10 miles , 16 km
Cloud details: Partly cloudy 4900 ft
Mostly cloudy 6500 ft
Overcast 7500 ft
2019/12/07 18:35 KPLU 071835Z AUTO 00000KT 10SM SCT049 BKN065 OVC075 10/10 A2974 RMK AO2
KGRF - Fort Lewis/Gray, Washington, USA
Distance from station: SSW 45mi, 72km
Updated: Sat, 07-Dec-2019 10:44am PST
Light rain, Overcast
Light rain, Overcast
 Wind from calm
Wind: Calm
Temperature: 48°F , 9°C
Dew Point: 48°F , 9°C
Humidity: 100%
Barometer: 29.74 inHg , 1007.1 hPa
Summary: Light rain
Clouds: Overcast
Visibility: 6 miles , 10 km
Cloud details: Few Clouds 400 ft
Few Clouds 900 ft
Partly cloudy 1400 ft
Mostly cloudy 2900 ft
Overcast 3500 ft
2019/12/07 18:44 KGRF 071844Z 00000KT 6SM -RA FEW004 FEW009 SCT014 BKN029 OVC035 09/09 A2974 RMK AO2A DZB15E25RAB40 SLP076 $
 
KNUW - Whidbey Is. Nas, Washington, USA
Distance from station: NNW 48mi, 77km
Updated: Sat, 07-Dec-2019 9:56am PST
Light rain, Overcast
Light rain, Overcast
 Wind from SE
Wind: SE 13 mph , 20 km/h
Temperature: 50°F , 10°C
Wind Chill: 45°F , 7°C
Dew Point: 45°F , 7°C
Humidity: 82%
Barometer: 29.77 inHg , 1008.1 hPa
Summary: Light rain
Clouds: Overcast
Visibility: 10 miles , 16 km
Cloud details: Partly cloudy 1600 ft
Mostly cloudy 3600 ft
Overcast 5500 ft
2019/12/07 17:56 KNUW 071756Z 13011KT 10SM -RA SCT016 BKN036 OVC055 10/07 A2977 RMK AO2 SLP080 P0002 60013 T01000072 10100 20089 53009 $
KSHN - Shelton, Washington, USA
Distance from station: SW 50mi, 80km
Updated: Sat, 07-Dec-2019 10:39am PST
Light rain, Mist, Overcast
Light rain, Mist, Overcast
 Wind from calm
Wind: Calm
Temperature: 48°F , 9°C
Dew Point: 46°F , 8°C
Humidity: 94%
Barometer: 29.72 inHg , 1006.4 hPa
Summary: Light rain, Mist
Clouds: Overcast
Visibility: 3 miles , 5 km
Cloud details: Overcast 300 ft
2019/12/07 18:39 KSHN 071839Z AUTO 00000KT 3SM -RA BR OVC003 09/08 A2972 RMK AO2 RAE08B26 P0001 T00890083